createdAt,value
2023-03-31T00:04:15.560Z,6.97
2023-03-31T00:09:22.153Z,6.03
2023-03-31T00:14:25.744Z,7.50
2023-03-31T00:19:33.277Z,6.13
2023-03-31T00:24:37.282Z,5.17
2023-03-31T00:29:41.736Z,5.10
2023-03-31T00:34:47.422Z,5.30
2023-03-31T00:39:50.691Z,5.27
2023-03-31T00:45:27.454Z,5.93
2023-03-31T00:50:36.760Z,5.40
2023-03-31T00:55:45.126Z,5.80
2023-03-31T01:00:49.291Z,5.73
2023-03-31T01:05:57.939Z,5.87
2023-03-31T01:11:04.556Z,7.13
2023-03-31T01:16:08.428Z,7.03
2023-03-31T01:21:40.426Z,7.33
2023-03-31T01:26:56.689Z,7.03
2023-03-31T01:32:27.918Z,6.40
2023-03-31T01:38:11.873Z,8.17
2023-03-31T01:43:21.583Z,9.23
2023-03-31T01:48:34.199Z,7.33
2023-03-31T01:53:46.414Z,7.10
2023-03-31T01:58:55.985Z,8.47
2023-03-31T02:04:02.791Z,11.47
2023-03-31T02:09:11.435Z,11.17
2023-03-31T02:14:22.016Z,11.13
2023-03-31T02:19:28.661Z,9.70
2023-03-31T02:24:34.724Z,9.87
2023-03-31T02:29:39.783Z,10.17
2023-03-31T02:34:43.358Z,13.60
2023-03-31T02:39:48.645Z,10.60
2023-03-31T02:44:53.607Z,11.47
2023-03-31T02:50:00.870Z,12.90
2023-03-31T02:55:16.613Z,11.97
2023-03-31T03:00:31.613Z,12.23
2023-03-31T03:05:45.585Z,11.50
2023-03-31T03:11:00.430Z,11.63
2023-03-31T03:16:09.399Z,12.20
2023-03-31T03:21:12.739Z,10.77
2023-03-31T03:26:16.349Z,9.90
2023-03-31T03:31:21.260Z,11.10
2023-03-31T03:36:24.700Z,11.60
2023-03-31T03:41:28.122Z,10.93
2023-03-31T03:46:32.949Z,11.50
2023-03-31T03:51:36.292Z,10.77
2023-03-31T03:56:39.963Z,12.17
2023-03-31T04:01:44.813Z,12.03
2023-03-31T04:06:48.268Z,12.97
2023-03-31T04:11:51.652Z,18.23
2023-03-31T04:16:56.562Z,14.77
2023-03-31T04:22:02.930Z,12.77
2023-03-31T04:27:07.505Z,12.60
2023-03-31T04:32:15.174Z,12.20
2023-03-31T04:37:18.834Z,11.60
2023-03-31T04:42:22.139Z,11.07
2023-03-31T04:47:26.944Z,11.63
2023-03-31T04:52:30.273Z,11.90
2023-03-31T04:57:33.587Z,13.13
2023-03-31T05:02:38.429Z,12.83
2023-03-31T05:07:41.742Z,11.37
2023-03-31T05:12:44.996Z,11.93
2023-03-31T05:17:50.554Z,10.77
2023-03-31T05:22:53.806Z,11.07
2023-03-31T05:27:57.406Z,11.27
2023-03-31T05:33:02.195Z,10.30
2023-03-31T05:38:06.770Z,9.60
2023-03-31T05:43:09.982Z,10.37
2023-03-31T05:48:14.752Z,10.33
2023-03-31T05:53:18.025Z,10.40
2023-03-31T05:58:21.292Z,10.07
2023-03-31T06:03:25.921Z,10.03
2023-03-31T06:08:29.453Z,9.47
2023-03-31T06:13:32.856Z,9.87
2023-03-31T06:18:37.929Z,9.23
2023-03-31T06:23:41.809Z,9.80
2023-03-31T06:28:45.533Z,10.80
2023-03-31T06:33:50.926Z,9.87
2023-03-31T06:38:54.938Z,11.63
2023-03-31T06:43:58.239Z,12.53
2023-03-31T06:49:02.935Z,12.23
2023-03-31T06:54:06.407Z,12.67
2023-03-31T06:59:09.657Z,9.50
2023-03-31T07:04:14.324Z,9.57
2023-03-31T07:09:18.719Z,8.00
2023-03-31T07:14:22.808Z,7.97
2023-03-31T07:19:27.519Z,8.17
2023-03-31T07:24:31.101Z,7.30
2023-03-31T07:29:34.333Z,9.50
2023-03-31T07:34:40.704Z,10.07
2023-03-31T07:39:44.031Z,9.27
2023-03-31T07:44:47.315Z,9.53
2023-03-31T07:49:52.176Z,8.07
2023-03-31T07:54:55.461Z,8.33
2023-03-31T07:59:58.747Z,9.17
2023-03-31T08:05:03.466Z,7.30
2023-03-31T08:10:08.861Z,6.90
2023-03-31T08:15:12.523Z,6.70
2023-03-31T08:20:17.336Z,7.03
2023-03-31T08:25:21.293Z,7.70
2023-03-31T08:30:24.803Z,5.77
2023-03-31T08:35:29.639Z,5.40
2023-03-31T08:40:34.312Z,4.73
2023-03-31T08:45:41.075Z,6.83
2023-03-31T08:50:52.955Z,7.17
2023-03-31T08:55:57.938Z,7.03
2023-03-31T09:01:09.171Z,7.50
2023-03-31T09:06:17.816Z,6.80
2023-03-31T09:11:31.417Z,8.30
2023-03-31T09:16:39.972Z,7.80
2023-03-31T09:21:47.096Z,7.60
2023-03-31T09:26:54.197Z,7.67
2023-03-31T09:32:03.357Z,7.17
2023-03-31T09:37:08.109Z,7.27
2023-03-31T09:42:13.618Z,9.27
2023-03-31T09:47:22.150Z,9.43
2023-03-31T09:52:31.909Z,9.30
2023-03-31T09:57:37.349Z,10.47
2023-03-31T10:02:45.757Z,8.43
2023-03-31T10:07:50.796Z,7.33
2023-03-31T10:12:54.687Z,6.20
2023-03-31T10:18:00.382Z,6.20
2023-03-31T10:23:17.987Z,4.97
2023-03-31T10:28:22.801Z,5.47
2023-03-31T10:33:28.364Z,5.00
2023-03-31T10:38:37.250Z,5.50
2023-03-31T10:43:44.013Z,5.83
2023-03-31T10:48:47.842Z,6.27
2023-03-31T10:53:56.478Z,6.37
2023-03-31T10:59:15.726Z,5.20
2023-03-31T11:04:45.875Z,3.00
2023-03-31T11:10:05.433Z,2.87
2023-03-31T11:15:22.076Z,4.00
2023-03-31T11:20:32.357Z,6.10
2023-03-31T11:25:44.500Z,5.80
2023-03-31T11:30:53.729Z,5.53
2023-03-31T11:36:08.477Z,5.43
2023-03-31T11:41:17.047Z,5.03
2023-03-31T11:46:23.776Z,4.90
2023-03-31T11:51:31.759Z,4.50
2023-03-31T11:56:39.445Z,4.10
2023-03-31T12:01:49.406Z,3.60
2023-03-31T12:06:57.427Z,3.23
2023-03-31T12:12:07.062Z,2.90
2023-03-31T12:17:13.612Z,2.77
2023-03-31T12:22:21.050Z,2.37
2023-03-31T12:27:28.924Z,3.80
2023-03-31T12:32:36.590Z,3.33
2023-03-31T12:38:20.586Z,4.70
2023-03-31T12:43:46.044Z,2.63
2023-03-31T12:49:00.060Z,2.73
2023-03-31T12:54:18.622Z,2.13
2023-03-31T12:59:33.508Z,2.50
2023-03-31T13:04:38.234Z,1.70
2023-03-31T13:09:55.130Z,1.87
2023-03-31T13:15:00.617Z,1.70
2023-03-31T13:20:31.654Z,1.37
2023-03-31T13:25:42.824Z,1.70
2023-03-31T13:30:53.486Z,1.70
2023-03-31T13:36:11.855Z,1.83
2023-03-31T13:41:32.397Z,1.70
2023-03-31T13:47:01.193Z,1.90
2023-03-31T13:52:10.502Z,1.90
2023-03-31T13:57:42.341Z,3.83
2023-03-31T14:03:02.525Z,7.30
2023-03-31T14:08:12.336Z,4.93
2023-03-31T14:13:18.828Z,1.80
2023-03-31T14:18:27.654Z,2.13
2023-03-31T14:23:44.456Z,1.83
2023-03-31T14:29:01.335Z,1.90
2023-03-31T14:34:33.217Z,2.10
2023-03-31T14:39:39.922Z,1.90
2023-03-31T14:44:46.840Z,2.03
2023-03-31T14:50:03.876Z,1.80
2023-03-31T14:55:15.229Z,1.63
2023-03-31T15:00:25.608Z,1.50
2023-03-31T15:05:33.064Z,2.03
2023-03-31T15:10:40.340Z,2.23
2023-03-31T15:15:45.725Z,1.90
2023-03-31T15:20:50.794Z,1.90
2023-03-31T15:25:57.869Z,1.70
2023-03-31T15:31:10.029Z,1.90
2023-03-31T15:36:16.112Z,2.10
2023-03-31T15:41:20.618Z,1.80
2023-03-31T15:46:27.548Z,2.10
2023-03-31T15:51:37.039Z,1.60
2023-03-31T15:56:45.333Z,1.50
2023-03-31T16:01:50.393Z,1.80
2023-03-31T16:06:59.265Z,2.00
2023-03-31T16:12:06.358Z,1.90
2023-03-31T16:17:14.023Z,1.53
2023-03-31T16:22:21.612Z,1.50
2023-03-31T16:27:25.559Z,1.47
2023-03-31T16:32:28.887Z,2.57
2023-03-31T16:37:35.224Z,1.90
2023-03-31T16:42:38.612Z,1.67
2023-03-31T16:47:45.204Z,2.50
2023-03-31T16:52:51.779Z,2.10
2023-03-31T16:57:55.717Z,2.40
2023-03-31T17:02:59.597Z,2.10
2023-03-31T17:08:04.510Z,1.90
2023-03-31T17:13:10.029Z,2.40
2023-03-31T17:18:14.498Z,2.70
2023-03-31T17:23:21.019Z,2.30
2023-03-31T17:28:24.960Z,1.80
2023-03-31T17:33:29.710Z,1.90
2023-03-31T17:38:35.920Z,2.00
2023-03-31T17:43:39.964Z,1.60
2023-03-31T17:48:44.993Z,1.60
2023-03-31T17:53:53.269Z,2.40
2023-03-31T17:58:57.868Z,2.00
2023-03-31T18:04:02.532Z,1.90
2023-03-31T18:09:09.243Z,2.50
2023-03-31T18:14:13.784Z,2.07
2023-03-31T18:19:18.363Z,2.10
2023-03-31T18:24:24.244Z,1.70
2023-03-31T18:29:31.381Z,1.67
2023-03-31T18:34:37.159Z,2.07
2023-03-31T18:39:44.924Z,1.30
2023-03-31T18:44:50.603Z,1.53
2023-03-31T18:49:56.352Z,1.40
2023-03-31T18:55:02.512Z,2.33
2023-03-31T19:00:08.574Z,1.50
2023-03-31T19:05:15.149Z,1.13
2023-03-31T19:10:21.649Z,1.50
2023-03-31T19:15:26.487Z,1.50
2023-03-31T19:20:31.118Z,1.50
2023-03-31T19:25:36.867Z,1.60
2023-03-31T19:30:41.437Z,2.20
2023-03-31T19:35:46.996Z,1.90
2023-03-31T19:40:52.419Z,4.23
2023-03-31T19:46:00.377Z,3.50
2023-03-31T19:51:07.854Z,1.90
2023-03-31T19:56:16.570Z,1.80
2023-03-31T20:01:24.158Z,2.20
2023-03-31T20:06:30.401Z,2.53
2023-03-31T20:11:36.646Z,4.27
2023-03-31T20:16:40.934Z,4.33
2023-03-31T20:21:45.894Z,3.80
2023-03-31T20:26:52.419Z,4.57
2023-03-31T20:31:56.878Z,3.03
2023-03-31T20:37:00.969Z,2.93
2023-03-31T20:42:07.298Z,3.00
2023-03-31T20:47:11.321Z,2.90
2023-03-31T20:52:15.213Z,2.97
2023-03-31T20:57:19.973Z,2.63
2023-03-31T21:02:23.631Z,3.30
2023-03-31T21:07:27.067Z,3.93
2023-03-31T21:12:31.789Z,3.70
2023-03-31T21:17:35.249Z,3.20
2023-03-31T21:22:38.546Z,3.17
2023-03-31T21:27:43.340Z,3.00
2023-03-31T21:32:46.888Z,4.37
2023-03-31T21:37:50.225Z,4.40
2023-03-31T21:42:55.093Z,4.50
2023-03-31T21:47:58.652Z,4.63
2023-03-31T21:53:03.234Z,4.10
2023-03-31T21:58:07.970Z,4.13
2023-03-31T22:08:20.189Z,4.70
2023-03-31T22:13:25.850Z,4.77
2023-03-31T22:18:29.414Z,4.83
2023-03-31T22:23:33.761Z,4.30
2023-03-31T22:28:38.432Z,5.77
2023-03-31T22:33:41.833Z,4.83
2023-03-31T22:38:45.139Z,4.93
2023-03-31T22:43:49.811Z,5.10
2023-03-31T22:48:53.095Z,4.77
2023-03-31T22:53:56.466Z,5.50
2023-03-31T22:59:01.214Z,6.13
2023-03-31T23:04:05.353Z,4.97
2023-03-31T23:09:08.683Z,6.07
2023-03-31T23:14:13.971Z,7.33
2023-03-31T23:19:18.582Z,8.63
2023-03-31T23:24:23.081Z,8.17
2023-03-31T23:29:28.158Z,8.20
2023-03-31T23:34:31.847Z,6.17
2023-03-31T23:39:35.121Z,6.93
2023-03-31T23:44:39.780Z,7.17
2023-03-31T23:49:43.059Z,9.80
2023-03-31T23:54:46.387Z,7.43
2023-03-31T23:59:52.547Z,6.07
